EGHH

Bournemouth Airport

Bournemouth, United Kingdom
TAF EGHH 190800Z 1909/1918 34004KT 9999 FEW030
Issued Valid From Valid To
Oct-19 @ 08:00 UTC
(an hour ago)
Oct-19 @ 09:00 UTC
(26 minutes ago)
Oct-19 @ 18:00 UTC
(in 9 hours)
Oct-19 @ 09:00 to Oct-19 @ 18:00
TAF EGHH 190800Z 1909/1918 34004KT 9999 FEW030
Wind Visibility Clouds
340° at 4 knots 10,000+ meters
  • Few at 3,000' AGL
TAF EGHH 190800Z 1909/1918 34004KT 9999 FEW030
Issued Oct-19 @ 08:00 UTC
(an hour ago)
Valid From Oct-19 @ 09:00 UTC
(26 minutes ago)
Valid To Oct-19 @ 18:00 UTC
(in 9 hours)
Oct-19 @ 09:00 - Oct-19 @ 18:00
Wind Visibility
340° at 4 knots 10,000+ meters
Clouds
  • Few at 3,000' AGL